createdAt,value
2022-08-09T00:01:45.637Z,54.02
2022-08-09T00:04:34.724Z,51.58
2022-08-09T00:07:03.741Z,52.32
2022-08-09T00:09:38.242Z,52.27
2022-08-09T00:12:05.850Z,52.30
2022-08-09T00:14:37.909Z,52.66
2022-08-09T00:17:06.436Z,52.46
2022-08-09T00:19:34.077Z,52.82
2022-08-09T00:22:03.475Z,53.70
2022-08-09T00:24:32.017Z,54.03
2022-08-09T00:27:00.062Z,54.04
2022-08-09T00:29:39.557Z,53.01
2022-08-09T00:32:25.394Z,53.33
2022-08-09T00:34:53.107Z,53.57
2022-08-09T00:37:20.438Z,53.80
2022-08-09T00:40:12.231Z,54.07
2022-08-09T00:44:16.717Z,53.68
2022-08-09T00:45:22.466Z,53.49
2022-08-09T00:47:50.015Z,53.47
2022-08-09T00:50:17.348Z,54.09
2022-08-09T00:52:44.619Z,54.38
2022-08-09T00:55:32.949Z,54.87
2022-08-09T00:57:59.813Z,53.96
2022-08-09T01:00:27.761Z,55.52
2022-08-09T01:03:02.578Z,55.98
2022-08-09T01:05:53.160Z,56.60
2022-08-09T01:08:27.053Z,55.70
2022-08-09T01:11:17.914Z,58.51
2022-08-09T01:13:59.476Z,58.46
2022-08-09T01:16:30.367Z,58.47
2022-08-09T01:19:01.954Z,60.67
2022-08-09T01:21:45.183Z,59.77
2022-08-09T01:24:35.096Z,60.63
2022-08-09T01:27:13.323Z,59.92
2022-08-09T01:29:55.558Z,60.88
2022-08-09T01:32:30.218Z,59.37
2022-08-09T01:35:18.292Z,60.92
2022-08-09T01:38:09.440Z,61.84
2022-08-09T01:40:41.268Z,61.33
2022-08-09T01:43:10.009Z,61.89
2022-08-09T01:45:46.235Z,61.15
2022-08-09T01:48:16.462Z,61.63
2022-08-09T01:50:54.982Z,61.99
2022-08-09T01:53:23.864Z,62.07
2022-08-09T01:55:57.101Z,62.34
2022-08-09T01:58:25.687Z,62.46
2022-08-09T02:00:56.242Z,62.05
2022-08-09T02:03:24.366Z,61.69
2022-08-09T02:06:06.425Z,62.42
2022-08-09T02:08:56.728Z,62.23
2022-08-09T02:11:25.558Z,62.22
2022-08-09T02:14:15.889Z,62.55
2022-08-09T02:17:14.680Z,62.94
2022-08-09T02:19:43.596Z,62.96
2022-08-09T02:22:16.846Z,63.21
2022-08-09T02:24:51.989Z,63.90
2022-08-09T02:27:20.704Z,63.34
2022-08-09T02:30:08.661Z,64.46
2022-08-09T02:32:39.851Z,64.60
2022-08-09T02:35:17.258Z,65.14
2022-08-09T02:37:46.526Z,65.12
2022-08-09T02:40:24.867Z,64.65
2022-08-09T02:43:00.034Z,65.49
2022-08-09T02:45:32.977Z,65.72
2022-08-09T02:48:06.155Z,65.88
2022-08-09T02:50:56.243Z,65.53
2022-08-09T02:53:28.858Z,65.68
2022-08-09T02:55:58.962Z,67.00
2022-08-09T02:58:36.915Z,66.41
2022-08-09T03:01:10.838Z,67.50
2022-08-09T03:04:18.396Z,66.75
2022-08-09T03:06:28.140Z,67.69
2022-08-09T03:08:57.342Z,67.03
2022-08-09T03:11:29.904Z,68.04
2022-08-09T03:14:15.898Z,67.90
2022-08-09T03:16:45.052Z,68.15
2022-08-09T03:19:52.296Z,68.67
2022-08-09T03:22:04.608Z,68.70
2022-08-09T03:24:52.391Z,68.62
2022-08-09T03:27:21.536Z,69.20
2022-08-09T03:29:57.612Z,69.07
2022-08-09T03:32:34.139Z,69.68
2022-08-09T03:35:24.265Z,69.62
2022-08-09T03:37:55.959Z,69.19
2022-08-09T03:40:25.646Z,69.85
2022-08-09T03:42:58.516Z,70.13
2022-08-09T03:46:03.256Z,70.39
2022-08-09T03:48:19.127Z,70.56
2022-08-09T03:50:59.717Z,70.77
2022-08-09T03:53:32.198Z,69.65
2022-08-09T03:56:04.819Z,70.64
2022-08-09T03:58:33.026Z,70.75
2022-08-09T04:01:00.358Z,71.29
2022-08-09T04:03:46.077Z,69.64
2022-08-09T04:06:16.059Z,70.99
2022-08-09T04:08:46.633Z,70.00
2022-08-09T04:11:14.181Z,71.21
2022-08-09T04:13:44.849Z,70.62
2022-08-09T04:16:20.721Z,69.56
2022-08-09T04:18:49.227Z,70.43
2022-08-09T04:21:19.102Z,71.36
2022-08-09T04:23:53.951Z,69.99
2022-08-09T04:26:23.428Z,70.56
2022-08-09T04:28:52.412Z,69.27
2022-08-09T04:31:23.509Z,70.20
2022-08-09T04:33:56.945Z,70.25
2022-08-09T04:36:28.034Z,71.16
2022-08-09T04:38:57.048Z,71.35
2022-08-09T04:41:32.891Z,70.93
2022-08-09T04:44:06.080Z,70.31
2022-08-09T04:46:57.048Z,70.41
2022-08-09T04:49:40.732Z,72.01
2022-08-09T04:52:18.232Z,71.96
2022-08-09T04:54:51.611Z,72.35
2022-08-09T04:57:24.070Z,72.14
2022-08-09T04:59:55.487Z,72.21
2022-08-09T05:02:23.854Z,72.95
2022-08-09T05:04:55.394Z,73.46
2022-08-09T05:07:23.835Z,73.71
2022-08-09T05:09:51.604Z,73.25
2022-08-09T05:12:22.524Z,72.70
2022-08-09T05:14:55.130Z,73.13
2022-08-09T05:18:36.706Z,72.83
2022-08-09T05:20:10.115Z,73.15
2022-08-09T05:23:53.534Z,73.02
2022-08-09T05:25:26.535Z,72.62
2022-08-09T05:27:59.745Z,73.02
2022-08-09T05:30:30.117Z,73.55
2022-08-09T05:32:59.316Z,73.32
2022-08-09T05:35:26.679Z,73.11
2022-08-09T05:37:57.099Z,72.86
2022-08-09T05:40:31.601Z,73.50
2022-08-09T05:42:58.843Z,72.90
2022-08-09T05:45:26.539Z,73.29
2022-08-09T05:48:13.978Z,72.65
2022-08-09T05:50:51.065Z,72.80
2022-08-09T05:53:33.359Z,73.13
2022-08-09T05:56:01.654Z,72.80
2022-08-09T05:58:29.132Z,72.42
2022-08-09T06:00:56.411Z,72.53
2022-08-09T06:03:25.511Z,72.50
2022-08-09T06:06:05.866Z,72.77
2022-08-09T06:08:33.960Z,71.97
2022-08-09T06:11:01.323Z,71.67
2022-08-09T06:13:43.542Z,71.24
2022-08-09T06:16:13.080Z,70.49
2022-08-09T06:18:40.425Z,70.73
2022-08-09T06:21:08.163Z,70.02
2022-08-09T06:23:55.716Z,69.77
2022-08-09T06:26:28.622Z,70.23
2022-08-09T06:29:00.873Z,69.84
2022-08-09T06:31:40.376Z,69.42
2022-08-09T06:34:22.524Z,69.05
2022-08-09T06:36:59.000Z,68.95
2022-08-09T06:39:48.411Z,68.34
2022-08-09T06:42:16.582Z,68.34
2022-08-09T06:44:54.173Z,68.60
2022-08-09T06:47:22.239Z,68.13
2022-08-09T06:50:13.403Z,68.01
2022-08-09T06:52:45.837Z,68.08
2022-08-09T06:55:15.691Z,68.26
2022-08-09T06:58:01.976Z,67.49
2022-08-09T07:00:51.003Z,67.46
2022-08-09T07:03:19.837Z,66.98
2022-08-09T07:06:03.090Z,66.98
2022-08-09T07:08:31.874Z,67.33
2022-08-09T07:10:59.177Z,67.49
2022-08-09T07:13:28.204Z,67.05
2022-08-09T07:16:41.446Z,67.54
2022-08-09T07:18:47.391Z,68.15
2022-08-09T07:21:14.850Z,68.22
2022-08-09T07:23:56.617Z,68.37
2022-08-09T07:26:26.016Z,68.05
2022-08-09T07:29:08.393Z,67.78
2022-08-09T07:31:38.351Z,67.60
2022-08-09T07:34:20.832Z,67.25
2022-08-09T07:36:49.550Z,66.85
2022-08-09T07:39:20.347Z,66.99
2022-08-09T07:42:05.335Z,66.11
2022-08-09T07:44:53.322Z,66.08
2022-08-09T07:47:21.191Z,65.85
2022-08-09T07:50:05.177Z,65.84
2022-08-09T07:52:36.619Z,65.64
2022-08-09T07:55:09.732Z,65.34
2022-08-09T07:57:46.905Z,65.15
2022-08-09T08:00:20.642Z,64.91
2022-08-09T08:03:04.708Z,65.14
2022-08-09T08:05:53.537Z,65.00
2022-08-09T08:09:01.225Z,65.40
2022-08-09T08:12:12.019Z,65.22
2022-08-09T08:13:56.642Z,65.15
2022-08-09T08:16:31.521Z,65.27
2022-08-09T08:18:59.942Z,65.23
2022-08-09T08:21:30.723Z,65.21
2022-08-09T08:24:00.987Z,65.26
2022-08-09T08:26:42.105Z,65.37
2022-08-09T08:29:20.037Z,65.31
2022-08-09T08:32:03.414Z,65.32
2022-08-09T08:34:31.847Z,65.12
2022-08-09T08:37:02.451Z,65.11
2022-08-09T08:39:39.577Z,65.04
2022-08-09T08:42:11.169Z,64.45
2022-08-09T08:44:39.599Z,64.69
2022-08-09T08:47:12.917Z,64.38
2022-08-09T08:49:47.143Z,64.64
2022-08-09T08:52:48.457Z,64.22
2022-08-09T08:55:05.826Z,64.03
2022-08-09T08:57:35.137Z,63.72
2022-08-09T09:00:12.734Z,63.42
2022-08-09T09:02:50.095Z,63.83
2022-08-09T09:05:57.513Z,63.48
2022-08-09T09:08:29.709Z,63.41
2022-08-09T09:11:03.920Z,62.62
2022-08-09T09:13:55.132Z,62.63
2022-08-09T09:16:30.261Z,61.81
2022-08-09T09:19:22.522Z,61.67
2022-08-09T09:22:00.749Z,61.13
2022-08-09T09:24:38.905Z,61.85
2022-08-09T09:27:08.517Z,61.61
2022-08-09T09:30:11.404Z,61.39
2022-08-09T09:32:34.626Z,61.43
2022-08-09T09:35:02.646Z,61.70
2022-08-09T09:37:40.975Z,61.81
2022-08-09T09:40:09.332Z,61.99
2022-08-09T09:42:36.942Z,62.19
2022-08-09T09:45:08.144Z,62.11
2022-08-09T09:47:42.123Z,62.26
2022-08-09T09:50:39.567Z,61.35
2022-08-09T09:53:17.902Z,60.91
2022-08-09T09:55:57.644Z,60.93
2022-08-09T09:58:47.415Z,60.77
2022-08-09T10:01:31.306Z,60.50
2022-08-09T10:04:16.098Z,60.07
2022-08-09T10:06:51.970Z,59.83
2022-08-09T10:09:23.861Z,59.62
2022-08-09T10:12:11.435Z,59.62
2022-08-09T10:14:40.370Z,58.69
2022-08-09T10:17:24.281Z,58.89
2022-08-09T10:20:05.863Z,58.98
2022-08-09T10:22:42.583Z,59.03
2022-08-09T10:25:12.045Z,59.34
2022-08-09T10:27:57.659Z,58.97
2022-08-09T10:34:05.202Z,58.69
2022-08-09T10:36:02.597Z,58.94
2022-08-09T10:38:54.323Z,57.75
2022-08-09T10:41:18.652Z,57.28
2022-08-09T10:43:52.613Z,56.94
2022-08-09T10:46:30.473Z,56.44
2022-08-09T10:49:12.527Z,57.01
2022-08-09T10:51:52.926Z,57.12
2022-08-09T10:54:24.499Z,56.55
2022-08-09T10:57:21.518Z,56.14
2022-08-09T10:59:57.633Z,56.14
2022-08-09T11:03:27.952Z,55.61
2022-08-09T11:05:30.512Z,55.58
2022-08-09T11:08:18.486Z,55.63
2022-08-09T11:11:00.867Z,55.09
2022-08-09T11:13:50.105Z,54.96
2022-08-09T11:16:36.209Z,54.71
2022-08-09T11:19:10.401Z,54.57
2022-08-09T11:22:10.817Z,54.51
2022-08-09T11:25:05.402Z,54.00
2022-08-09T11:28:03.222Z,53.70
2022-08-09T11:30:33.594Z,52.51
2022-08-09T11:33:03.977Z,52.75
2022-08-09T11:35:54.244Z,52.47
2022-08-09T11:38:32.499Z,52.22
2022-08-09T11:41:13.628Z,52.03
2022-08-09T11:43:43.212Z,51.83
2022-08-09T11:46:10.856Z,51.91
2022-08-09T11:48:49.265Z,51.75
2022-08-09T11:52:54.088Z,51.67
2022-08-09T11:54:33.357Z,51.55
2022-08-09T11:57:28.380Z,51.41
2022-08-09T12:00:16.265Z,51.37
2022-08-09T12:02:45.315Z,50.77
2022-08-09T12:05:22.765Z,51.00
2022-08-09T12:07:53.423Z,50.93
2022-08-09T12:10:38.416Z,50.88
2022-08-09T12:14:08.904Z,50.85
2022-08-09T12:16:01.729Z,49.90
2022-08-09T12:18:33.467Z,50.28
2022-08-09T12:21:03.037Z,49.72
2022-08-09T12:24:00.442Z,49.72
2022-08-09T12:26:26.138Z,49.17
2022-08-09T12:29:00.252Z,48.79
2022-08-09T12:32:01.763Z,49.12
2022-08-09T12:34:37.551Z,48.83
2022-08-09T12:37:22.220Z,48.42
2022-08-09T12:40:08.807Z,48.29
2022-08-09T12:42:37.297Z,48.08
2022-08-09T12:45:32.305Z,48.24
2022-08-09T12:47:52.462Z,48.42
2022-08-09T12:50:23.756Z,48.03
2022-08-09T12:53:07.946Z,48.08
2022-08-09T12:56:15.247Z,47.57
2022-08-09T12:58:27.456Z,47.68
2022-08-09T13:00:56.437Z,46.97
2022-08-09T13:03:52.728Z,46.88
2022-08-09T13:06:34.382Z,46.90
2022-08-09T13:09:06.980Z,46.20
2022-08-09T13:11:39.448Z,46.71
2022-08-09T13:14:37.079Z,46.86
2022-08-09T13:17:02.127Z,46.09
2022-08-09T13:20:07.662Z,46.69
2022-08-09T13:22:45.602Z,46.58
2022-08-09T13:25:11.948Z,46.63
2022-08-09T13:27:48.820Z,45.82
2022-08-09T13:30:50.841Z,45.93
2022-08-09T13:33:11.981Z,46.04
2022-08-09T13:36:24.355Z,45.76
2022-08-09T13:38:56.023Z,45.51
2022-08-09T13:41:58.575Z,45.84
2022-08-09T13:44:16.422Z,45.44
2022-08-09T13:47:29.049Z,45.13
2022-08-09T13:49:37.790Z,44.88
2022-08-09T13:52:08.969Z,45.08
2022-08-09T13:54:41.710Z,44.87
2022-08-09T13:57:35.066Z,44.50
2022-08-09T13:59:58.197Z,44.60
2022-08-09T14:02:26.389Z,44.48
2022-08-09T14:04:59.591Z,45.27
2022-08-09T14:07:40.909Z,45.47
2022-08-09T14:10:16.926Z,45.69
2022-08-09T14:12:44.877Z,45.44
2022-08-09T14:16:06.349Z,46.25
2022-08-09T14:18:19.388Z,46.54
2022-08-09T14:20:48.885Z,46.96
2022-08-09T14:23:20.258Z,47.44
2022-08-09T14:26:04.185Z,47.51
2022-08-09T14:28:33.259Z,47.86
2022-08-09T14:31:00.604Z,47.21
2022-08-09T14:33:28.211Z,47.11
2022-08-09T14:35:56.444Z,46.98
2022-08-09T14:38:23.733Z,47.12
2022-08-09T14:41:04.212Z,47.20
2022-08-09T14:43:46.979Z,46.84
2022-08-09T14:46:54.807Z,46.77
2022-08-09T14:49:03.383Z,46.12
2022-08-09T14:51:31.270Z,46.38
2022-08-09T14:54:10.255Z,46.74
2022-08-09T14:56:58.178Z,46.66
2022-08-09T14:59:25.234Z,46.63
2022-08-09T15:01:54.467Z,46.31
2022-08-09T15:04:23.239Z,46.87
2022-08-09T15:06:51.793Z,47.21
2022-08-09T15:10:03.571Z,47.48
2022-08-09T15:12:08.082Z,47.72
2022-08-09T15:14:38.255Z,47.98
2022-08-09T15:17:09.594Z,48.16
2022-08-09T15:19:37.141Z,48.51
2022-08-09T15:22:30.219Z,48.42
2022-08-09T15:25:00.330Z,48.58
2022-08-09T15:27:47.458Z,48.67
2022-08-09T15:31:00.671Z,48.99
2022-08-09T15:33:07.392Z,49.24
2022-08-09T15:35:40.779Z,49.17
2022-08-09T15:38:12.314Z,49.14
2022-08-09T15:40:43.894Z,49.28
2022-08-09T15:43:13.674Z,49.07
2022-08-09T15:46:07.647Z,49.30
2022-08-09T15:48:31.737Z,49.25
2022-08-09T15:51:00.003Z,48.80
2022-08-09T15:54:03.374Z,48.41
2022-08-09T15:56:29.480Z,47.95
2022-08-09T15:58:58.634Z,47.86
2022-08-09T16:01:26.225Z,47.67
2022-08-09T16:03:53.537Z,47.60
2022-08-09T16:06:32.755Z,48.17
2022-08-09T16:09:05.034Z,48.39
2022-08-09T16:11:33.563Z,48.41
2022-08-09T16:14:06.183Z,48.64
2022-08-09T16:16:37.342Z,48.71
2022-08-09T16:19:05.991Z,48.67
2022-08-09T16:21:35.613Z,48.77
2022-08-09T16:24:04.871Z,48.83
2022-08-09T16:26:34.689Z,49.52
2022-08-09T16:29:11.698Z,49.28
2022-08-09T16:32:19.170Z,49.46
2022-08-09T16:34:55.367Z,49.49
2022-08-09T16:37:20.186Z,48.84
2022-08-09T16:40:08.682Z,48.29
2022-08-09T16:42:36.709Z,48.35
2022-08-09T16:45:05.185Z,47.77
2022-08-09T16:48:38.781Z,47.67
2022-08-09T16:50:31.405Z,47.38
2022-08-09T16:53:01.013Z,46.90
2022-08-09T16:55:31.220Z,46.51
2022-08-09T16:58:13.886Z,46.67
2022-08-09T17:00:43.821Z,47.05
2022-08-09T17:03:21.482Z,47.75
2022-08-09T17:06:06.740Z,47.90
2022-08-09T17:08:45.724Z,48.26
2022-08-09T17:11:40.987Z,48.53
2022-08-09T17:14:26.238Z,48.51
2022-08-09T17:16:56.656Z,49.08
2022-08-09T17:19:46.571Z,49.18
2022-08-09T17:22:24.659Z,49.42
2022-08-09T17:25:04.966Z,49.47
2022-08-09T17:27:38.789Z,49.81
2022-08-09T17:30:12.758Z,49.95
2022-08-09T17:32:45.462Z,49.96
2022-08-09T17:35:14.222Z,49.92
2022-08-09T17:38:13.069Z,49.96
2022-08-09T17:40:30.426Z,50.11
2022-08-09T17:43:10.805Z,50.21
2022-08-09T17:46:03.715Z,50.76
2022-08-09T17:48:34.270Z,51.17
2022-08-09T17:51:09.669Z,50.78
2022-08-09T17:53:51.933Z,51.20
2022-08-09T17:56:22.086Z,51.26
2022-08-09T17:58:59.673Z,51.52
2022-08-09T18:02:03.499Z,50.88
2022-08-09T18:04:15.332Z,50.95
2022-08-09T18:06:55.252Z,51.23
2022-08-09T18:09:25.258Z,50.93
2022-08-09T18:12:17.570Z,51.08
2022-08-09T18:14:55.050Z,51.30
2022-08-09T18:17:27.400Z,50.91
2022-08-09T18:20:56.438Z,51.47
2022-08-09T18:23:04.649Z,51.43
2022-08-09T18:25:52.613Z,51.46
2022-08-09T18:30:42.690Z,51.38
2022-08-09T18:31:14.580Z,51.46
2022-08-09T18:33:45.181Z,51.23
2022-08-09T18:36:25.822Z,51.74
2022-08-09T18:39:02.076Z,51.67
2022-08-09T18:41:34.294Z,52.05
2022-08-09T18:44:03.594Z,51.77
2022-08-09T18:46:48.424Z,51.73
2022-08-09T18:49:20.040Z,51.88
2022-08-09T18:51:55.603Z,52.04
2022-08-09T18:54:28.528Z,52.09
2022-08-09T18:57:05.261Z,51.92
2022-08-09T18:59:37.516Z,52.78
2022-08-09T19:02:17.458Z,53.72
2022-08-09T19:04:47.303Z,54.07
2022-08-09T19:07:16.313Z,55.25
2022-08-09T19:10:14.533Z,57.38
2022-08-09T19:12:31.895Z,57.50
2022-08-09T19:15:02.737Z,58.89
2022-08-09T19:17:31.691Z,59.86
2022-08-09T19:20:18.933Z,59.60
2022-08-09T19:22:50.309Z,59.95
2022-08-09T19:25:42.782Z,60.84
2022-08-09T19:28:13.502Z,60.92
2022-08-09T19:30:44.702Z,61.30
2022-08-09T19:33:19.105Z,62.99
2022-08-09T19:35:56.778Z,62.34
2022-08-09T19:38:27.108Z,63.25
2022-08-09T19:40:54.923Z,63.12
2022-08-09T19:44:02.007Z,63.57
2022-08-09T19:46:14.729Z,63.82
2022-08-09T19:49:01.520Z,64.56
2022-08-09T19:51:31.040Z,63.42
2022-08-09T19:53:59.354Z,63.76
2022-08-09T19:56:28.815Z,63.71
2022-08-09T19:59:39.745Z,64.46
2022-08-09T20:01:52.367Z,64.79
2022-08-09T20:04:37.528Z,64.65
2022-08-09T20:07:15.900Z,65.03
2022-08-09T20:09:48.895Z,64.84
2022-08-09T20:12:27.516Z,65.55
2022-08-09T20:15:04.802Z,65.79
2022-08-09T20:17:48.377Z,65.38
2022-08-09T20:20:16.113Z,65.90
2022-08-09T20:22:46.306Z,65.97
2022-08-09T20:25:13.962Z,66.48
2022-08-09T20:27:51.052Z,66.00
2022-08-09T20:30:23.770Z,65.74
2022-08-09T20:32:52.201Z,66.66
2022-08-09T20:35:21.270Z,66.78
2022-08-09T20:38:22.294Z,66.82
2022-08-09T20:40:36.891Z,66.63
2022-08-09T20:43:18.467Z,66.39
2022-08-09T20:45:59.138Z,67.11
2022-08-09T20:48:39.230Z,66.54
2022-08-09T20:51:06.708Z,67.16
2022-08-09T20:53:37.543Z,67.32
2022-08-09T20:56:19.955Z,67.56
2022-08-09T20:58:49.809Z,67.74
2022-08-09T21:01:34.696Z,68.13
2022-08-09T21:05:49.145Z,67.68
2022-08-09T21:06:51.753Z,68.00
2022-08-09T21:09:24.821Z,68.96
2022-08-09T21:14:40.673Z,68.82
2022-08-09T21:18:21.861Z,69.62
2022-08-09T21:20:17.305Z,69.35
2022-08-09T21:22:47.096Z,69.15
2022-08-09T21:25:38.552Z,69.80
2022-08-09T21:28:07.313Z,69.13
2022-08-09T21:30:40.478Z,69.86
2022-08-09T21:33:08.638Z,69.90
2022-08-09T21:35:40.694Z,69.76
2022-08-09T21:38:08.905Z,70.31
2022-08-09T21:40:37.108Z,70.29
2022-08-09T21:43:06.296Z,70.66
2022-08-09T21:45:39.012Z,70.38
2022-08-09T21:48:07.214Z,70.67
2022-08-09T21:50:38.462Z,71.18
2022-08-09T21:53:15.567Z,70.08
2022-08-09T21:55:47.155Z,70.42
2022-08-09T21:58:15.538Z,70.85
2022-08-09T22:00:42.807Z,70.94
2022-08-09T22:03:19.710Z,71.17
2022-08-09T22:05:54.193Z,70.33
2022-08-09T22:08:24.533Z,70.49
2022-08-09T22:11:48.953Z,71.11
2022-08-09T22:13:43.242Z,69.91
2022-08-09T22:16:11.667Z,71.14
2022-08-09T22:18:52.220Z,70.59
2022-08-09T22:21:24.148Z,70.33
2022-08-09T22:23:59.171Z,71.03
2022-08-09T22:26:35.375Z,70.48
2022-08-09T22:29:09.247Z,70.37
2022-08-09T22:31:44.585Z,70.29
2022-08-09T22:34:25.485Z,70.16
2022-08-09T22:36:54.631Z,70.01
2022-08-09T22:39:57.501Z,70.67
2022-08-09T22:42:20.951Z,71.04
2022-08-09T22:45:11.520Z,69.80
2022-08-09T22:48:11.359Z,71.08
2022-08-09T22:50:29.892Z,71.48
2022-08-09T22:52:58.489Z,71.57
2022-08-09T22:55:33.628Z,71.74
2022-08-09T22:58:07.020Z,71.92
2022-08-09T23:00:36.339Z,71.95
2022-08-09T23:03:04.738Z,72.37
2022-08-09T23:05:40.152Z,71.45
2022-08-09T23:08:31.850Z,71.93
2022-08-09T23:10:59.486Z,72.01
2022-08-09T23:13:26.777Z,72.76
2022-08-09T23:16:02.164Z,72.58
2022-08-09T23:18:31.260Z,72.18
2022-08-09T23:20:58.542Z,72.18
2022-08-09T23:23:25.920Z,72.21
2022-08-09T23:25:53.187Z,71.36
2022-08-09T23:28:20.488Z,71.33
2022-08-09T23:30:51.633Z,71.75
2022-08-09T23:33:20.771Z,72.58
2022-08-09T23:36:04.414Z,72.59
2022-08-09T23:38:35.373Z,71.70
2022-08-09T23:41:03.256Z,72.17
2022-08-09T23:43:30.638Z,72.41
2022-08-09T23:45:57.939Z,72.54
2022-08-09T23:48:25.202Z,71.88
2022-08-09T23:50:52.451Z,72.59
2022-08-09T23:53:19.732Z,72.88
2022-08-09T23:55:55.482Z,72.91
2022-08-09T23:58:25.909Z,72.57
